Pura Vida — J8Y4106 — position and weather

sailwx.info

Track history (hours):
 
Tides and Currents Weather Stations Pressure Air Temp Water Temp Dewpoint Dewpoint Depression Visibility Wind Speed Wind Dir Waves Ship Positions

Pura Vida

Last reported at 2017-Oct-20 20:52 UTC. Time now 2017-Oct-22 22:48 UTC.
Position N 25°57' W 080°08'.

Length 24 m.

Type: Pleasure craft. MMSI: 376502000.

Date/timePositionNaut miles runAvg speedWind from/ knotsBaromVisibWave heightAir tempDewpointWater temp
2017-Oct-20 20:52N 25°57' W 080°08'1 3.9
2017-Oct-20 20:29N 25°58' W 080°07'3 5.9
2017-Oct-20 19:59N 26°01' W 080°07'2 3.9
2017-Oct-20 19:21N 26°03' W 080°07'3 7.5
2017-Oct-20 18:59N 26°06' W 080°07'2 5.0
2017-Oct-20 18:29N 26°08' W 080°06'0 0.2
2017-Oct-20 17:46N 26°09' W 080°07'0 1.3
2017-Oct-20 17:29N 26°08' W 080°07'2 3.4
2017-Oct-20 16:57N 26°07' W 080°07'3 6.9
2017-Oct-20 16:27N 26°03' W 080°07'3 6.0
2017-Oct-20 15:57N 26°00' W 080°07'2 4.1
2017-Oct-20 15:30N 25°58' W 080°07'2 3.0
2017-Oct-20 14:56N 25°57' W 080°08'0 0.0
2017-Oct-20 13:56N 25°57' W 080°08'0 0.0
2017-Oct-20 13:26N 25°57' W 080°08'0 0.0
2017-Oct-20 12:59N 25°57' W 080°08'0 0.0
2017-Oct-20 12:29N 25°57' W 080°08'0 0.0
2017-Oct-20 11:59N 25°57' W 080°08'0 0.0
2017-Oct-20 11:29N 25°57' W 080°08'0 0.0
2017-Oct-20 10:59N 25°57' W 080°08'0 0.0
2017-Oct-20 10:26N 25°57' W 080°08'0 0.0
2017-Oct-20 09:59N 25°57' W 080°08'0 0.0
2017-Oct-20 09:29N 25°57' W 080°08'0 0.0
2017-Oct-20 08:59N 25°57' W 080°08'0 0.0
2017-Oct-20 08:29N 25°57' W 080°08'0 0.0
2017-Oct-20 07:59N 25°57' W 080°08'0 0.0
2017-Oct-20 07:20N 25°57' W 080°08'0 0.0
2017-Oct-20 06:59N 25°57' W 080°08'0 0.0
2017-Oct-20 06:29N 25°57' W 080°08'0 0.0
2017-Oct-20 05:50N 25°57' W 080°08'0 0.0
2017-Oct-20 05:23N 25°57' W 080°08'0 0.0
2017-Oct-20 04:53N 25°57' W 080°08'0 0.0
2017-Oct-20 04:23N 25°57' W 080°08'0 0.0
2017-Oct-20 03:53N 25°57' W 080°08'0 0.0
2017-Oct-20 03:23N 25°57' W 080°08'0 0.0
2017-Oct-20 02:53N 25°57' W 080°08'0 0.0
2017-Oct-20 02:26N 25°57' W 080°08'0 0.0
2017-Oct-20 01:56N 25°57' W 080°08'0 0.0
2017-Oct-20 01:26N 25°57' W 080°08'0 0.0
2017-Oct-20 00:56N 25°57' W 080°08'0 0.0
2017-Oct-20 00:26N 25°57' W 080°08'0 0.0
2017-Oct-19 23:59N 25°57' W 080°08'0 0.0
2017-Oct-19 23:29N 25°57' W 080°08'0 0.0
2017-Oct-19 22:59N 25°57' W 080°08'0 0.0
2017-Oct-19 22:29N 25°57' W 080°08'0 0.0
2017-Oct-19 21:59N 25°57' W 080°08'0 0.0
2017-Oct-19 21:29N 25°57' W 080°08'0 0.0
2017-Oct-19 20:59N 25°57' W 080°08'0 0.0
2017-Oct-19 20:29N 25°57' W 080°08'0 0.0
2017-Oct-19 19:59N 25°57' W 080°08'0 0.0
2017-Oct-19 19:29N 25°57' W 080°08'0 0.0
2017-Oct-19 18:59N 25°57' W 080°08'0 0.0
2017-Oct-19 18:29N 25°57' W 080°08'0 0.0
2017-Oct-19 17:59N 25°57' W 080°08'0 0.0
2017-Oct-19 17:29N 25°57' W 080°08'0 0.0
2017-Oct-19 16:50N 25°57' W 080°08'0 0.0
2017-Oct-19 16:20N 25°57' W 080°08'0 0.0
2017-Oct-19 15:50N 25°57' W 080°08'0 0.0
2017-Oct-19 15:20N 25°57' W 080°08'0 0.0
2017-Oct-19 14:50N 25°57' W 080°08'0 0.0
2017-Oct-19 14:23N 25°57' W 080°08'0 0.0
2017-Oct-19 13:53N 25°57' W 080°08'0 0.0
2017-Oct-19 13:23N 25°57' W 080°08'0 0.0
2017-Oct-19 12:53N 25°57' W 080°08'0 0.0
2017-Oct-19 12:23N 25°57' W 080°08'0 0.0
2017-Oct-19 11:56N 25°57' W 080°08'0 0.0
2017-Oct-19 11:26N 25°57' W 080°08'0 0.0
2017-Oct-19 10:56N 25°57' W 080°08'0 0.0
2017-Oct-19 10:26N 25°57' W 080°08'0 0.0
2017-Oct-19 09:59N 25°57' W 080°08'0 0.0
2017-Oct-19 09:29N 25°57' W 080°08'0 0.0
2017-Oct-19 08:59N 25°57' W 080°08'0 0.0
2017-Oct-19 08:29N 25°57' W 080°08'0 0.0
2017-Oct-19 07:59N 25°57' W 080°08'0 0.0
2017-Oct-19 07:29N 25°57' W 080°08'0 0.0
2017-Oct-19 06:59N 25°57' W 080°08'0 0.0
2017-Oct-19 06:29N 25°57' W 080°08'0 0.0
2017-Oct-19 05:59N 25°57' W 080°08'0 0.0
2017-Oct-19 05:29N 25°57' W 080°08'0 0.0
2017-Oct-19 04:59N 25°57' W 080°08'0 0.0
2017-Oct-19 04:29N 25°57' W 080°08'0 0.0
2017-Oct-19 03:59N 25°57' W 080°08'0 0.0
2017-Oct-19 03:29N 25°57' W 080°08'0 0.0
2017-Oct-19 02:59N 25°57' W 080°08'0 0.0
2017-Oct-19 02:20N 25°57' W 080°08'0 0.0
2017-Oct-19 01:53N 25°57' W 080°08'0 0.0
2017-Oct-19 01:20N 25°57' W 080°08'0 0.0
2017-Oct-19 00:53N 25°57' W 080°08'0 0.0
2017-Oct-19 00:23N 25°57' W 080°08'0 0.0
2017-Oct-18 23:53N 25°57' W 080°08'0 0.0
2017-Oct-18 23:23N 25°57' W 080°08'0 0.0
2017-Oct-18 22:56N 25°57' W 080°08'0 0.0
2017-Oct-18 22:26N 25°57' W 080°08'0 0.0
2017-Oct-18 21:56N 25°57' W 080°08'0 0.0
2017-Oct-18 21:26N 25°57' W 080°08'0 0.0
2017-Oct-18 20:56N 25°57' W 080°08'0 0.0
2017-Oct-18 20:26N 25°57' W 080°08'0 0.0
2017-Oct-18 19:59N 25°57' W 080°08'0 0.0
2017-Oct-18 19:29N 25°57' W 080°08'0 0.0
2017-Oct-18 18:59N 25°57' W 080°08'0 0.0
2017-Oct-18 18:29N 25°57' W 080°08'0 0.0
2017-Oct-18 17:56N 25°57' W 080°08'0 0.0
2017-Oct-18 17:29N 25°57' W 080°08'0 0.0
2017-Oct-18 16:59N 25°57' W 080°08'0 0.0
2017-Oct-18 16:29N 25°57' W 080°08'0 0.0
2017-Oct-18 15:59N 25°57' W 080°08'0 0.0
2017-Oct-18 15:29N 25°57' W 080°08'0 0.0
2017-Oct-18 14:59N 25°57' W 080°08'0 0.0
2017-Oct-18 13:59N 25°57' W 080°08'0 0.0
2017-Oct-18 13:20N 25°57' W 080°08'0 0.0
2017-Oct-18 12:59N 25°57' W 080°08'0 0.0
2017-Oct-18 12:20N 25°57' W 080°08'0 0.0
2017-Oct-18 11:50N 25°57' W 080°08'0 0.0
2017-Oct-18 11:23N 25°57' W 080°08'0 0.0
2017-Oct-18 10:53N 25°57' W 080°08'0 0.0
2017-Oct-18 10:23N 25°57' W 080°08'0 0.0
2017-Oct-18 09:53N 25°57' W 080°08'0 0.0
2017-Oct-18 09:23N 25°57' W 080°08'0 0.0
2017-Oct-18 08:53N 25°57' W 080°08'0 0.0
2017-Oct-18 08:26N 25°57' W 080°08'0 0.0
2017-Oct-18 07:56N 25°57' W 080°08'0 0.0
2017-Oct-18 07:26N 25°57' W 080°08'0 0.0
2017-Oct-18 06:56N 25°57' W 080°08'0 0.0
2017-Oct-18 06:26N 25°57' W 080°08'0 0.0
2017-Oct-18 05:56N 25°57' W 080°08'0 0.0
2017-Oct-18 05:29N 25°57' W 080°08'0 0.0
2017-Oct-18 04:59N 25°57' W 080°08'0 0.0
2017-Oct-18 04:29N 25°57' W 080°08'0 0.0
2017-Oct-18 03:59N 25°57' W 080°08'0 0.0
2017-Oct-18 03:29N 25°57' W 080°08'0 0.0
2017-Oct-18 02:59N 25°57' W 080°08'0 0.0
2017-Oct-18 02:29N 25°57' W 080°08'0 0.0
2017-Oct-18 01:56N 25°57' W 080°08'0 0.0
2017-Oct-18 01:29N 25°57' W 080°08'0 0.0
2017-Oct-18 00:59N 25°57' W 080°08'0 0.0
2017-Oct-18 00:29N 25°57' W 080°08'0 0.0
2017-Oct-17 23:59N 25°57' W 080°08'0 0.0
2017-Oct-17 23:29N 25°57' W 080°08'0 0.0
2017-Oct-17 22:59N 25°57' W 080°08'0 0.0
2017-Oct-17 22:20N 25°57' W 080°08'0 0.0
2017-Oct-17 21:50N 25°57' W 080°08'0 0.0
2017-Oct-17 21:23N 25°57' W 080°08'0 0.0
2017-Oct-17 20:53N 25°57' W 080°08'0 0.0
2017-Oct-17 20:23N 25°57' W 080°08'0 0.0
2017-Oct-17 19:53N 25°57' W 080°08'0 0.0
2017-Oct-17 19:26N 25°57' W 080°08'0 0.0
2017-Oct-17 18:53N 25°57' W 080°08'0 0.0
2017-Oct-17 18:26N 25°57' W 080°08'0 0.0
2017-Oct-17 17:56N 25°57' W 080°08'0 0.0
2017-Oct-17 17:26N 25°57' W 080°08'0 0.0
2017-Oct-17 16:56N 25°57' W 080°08'0 0.0
2017-Oct-17 16:29N 25°57' W 080°08'0 0.0
2017-Oct-17 15:56N 25°57' W 080°08'0 0.0
2017-Oct-17 15:29N 25°57' W 080°08'0 0.0
2017-Oct-17 14:59N 25°57' W 080°08'0 0.0
2017-Oct-17 14:29N 25°57' W 080°08'0 0.0
2017-Oct-17 13:59N 25°57' W 080°08'0 0.0
2017-Oct-17 13:26N 25°57' W 080°08'0 0.0
2017-Oct-17 12:59N 25°57' W 080°08'0 0.0
2017-Oct-17 12:29N 25°57' W 080°08'0 0.0
2017-Oct-17 11:59N 25°57' W 080°08'0 0.0
2017-Oct-17 11:29N 25°57' W 080°08'0 0.0
2017-Oct-17 10:59N 25°57' W 080°08'0 0.0
2017-Oct-17 10:29N 25°57' W 080°08'0 0.0
2017-Oct-17 09:59N 25°57' W 080°08'0 0.0
2017-Oct-17 09:29N 25°57' W 080°08'0 0.0
2017-Oct-17 08:50N 25°57' W 080°08'0 0.0
2017-Oct-17 08:20N 25°57' W 080°08'0 0.0
2017-Oct-17 07:50N 25°57' W 080°08'0 0.0
2017-Oct-17 07:23N 25°57' W 080°08'0 0.0
2017-Oct-17 06:53N 25°57' W 080°08'0 0.0
2017-Oct-17 06:20N 25°57' W 080°08'0 0.0
2017-Oct-17 05:53N 25°57' W 080°08'0 0.0
2017-Oct-17 05:23N 25°57' W 080°08'0 0.0
2017-Oct-17 04:56N 25°57' W 080°08'0 0.0
2017-Oct-17 04:23N 25°57' W 080°08'0 0.0
2017-Oct-17 03:56N 25°57' W 080°08'0 0.0
2017-Oct-17 03:11N 25°57' W 080°08'0 0.0
2017-Oct-17 02:56N 25°57' W 080°08'0 0.0
2017-Oct-17 02:26N 25°57' W 080°08'0 0.0
2017-Oct-17 01:59N 25°57' W 080°08'0 0.0
2017-Oct-17 01:29N 25°57' W 080°08'0 0.0
2017-Oct-17 00:59N 25°57' W 080°08'0 0.0
2017-Oct-17 00:26N 25°57' W 080°08'0 0.0
2017-Oct-16 23:59N 25°57' W 080°08'0 0.0
2017-Oct-16 23:29N 25°57' W 080°08'0 0.0
2017-Oct-16 22:59N 25°57' W 080°08'0 0.0
2017-Oct-16 22:29N 25°57' W 080°08'0 0.0
2017-Oct-16 21:59N 25°57' W 080°08'0 0.0
2017-Oct-16 21:17N 25°57' W 080°08'0 0.0
2017-Oct-16 20:59N 25°57' W 080°08'0 0.0
2017-Oct-16 20:29N 25°57' W 080°08'0 0.0
2017-Oct-16 19:59N 25°57' W 080°08'0 0.0
2017-Oct-16 19:29N 25°57' W 080°08'0 0.0
2017-Oct-16 18:47N 25°57' W 080°08'0 0.0
2017-Oct-16 18:20N 25°57' W 080°08'0 0.0
2017-Oct-16 17:50N 25°57' W 080°08'0 0.0
2017-Oct-16 17:20N 25°57' W 080°08'0 0.0
2017-Oct-16 16:53N 25°57' W 080°08'0 0.0
2017-Oct-16 16:23N 25°57' W 080°08'0 0.0
2017-Oct-16 15:56N 25°57' W 080°08'0 0.0
2017-Oct-16 15:20N 25°57' W 080°08'0 0.0
2017-Oct-16 14:56N 25°57' W 080°08'0 0.0
2017-Oct-16 14:26N 25°57' W 080°08'0 0.0
2017-Oct-16 13:26N 25°57' W 080°08'0 0.0
2017-Oct-16 12:56N 25°57' W 080°08'0 0.0
2017-Oct-16 12:26N 25°57' W 080°08'0 0.0
2017-Oct-16 11:59N 25°57' W 080°08'0 0.0
2017-Oct-16 11:26N 25°57' W 080°08'0 0.0
2017-Oct-16 10:59N 25°57' W 080°08'0 0.0
2017-Oct-16 10:26N 25°57' W 080°08'0 0.0
2017-Oct-16 09:59N 25°57' W 080°08'0 0.0
2017-Oct-16 09:29N 25°57' W 080°08'0 0.0
2017-Oct-16 08:59N 25°57' W 080°08'0 0.0
2017-Oct-16 08:29N 25°57' W 080°08'0 0.0
2017-Oct-16 07:59N 25°57' W 080°08'0 0.0
2017-Oct-16 07:29N 25°57' W 080°08'0 0.0
2017-Oct-16 06:59N 25°57' W 080°08'0 0.0
2017-Oct-16 06:29N 25°57' W 080°08'0 0.0
2017-Oct-16 05:59N 25°57' W 080°08'0 0.0
2017-Oct-16 05:29N 25°57' W 080°08'0 0.0
2017-Oct-16 04:50N 25°57' W 080°08'0 0.0
2017-Oct-16 04:20N 25°57' W 080°08'0 0.0
2017-Oct-16 03:53N 25°57' W 080°08'0 0.0
2017-Oct-16 03:23N 25°57' W 080°08'0 0.0
2017-Oct-16 02:53N 25°57' W 080°08'0 0.0
2017-Oct-16 02:23N 25°57' W 080°08'0 0.0
2017-Oct-16 01:53N 25°57' W 080°08'0 0.0
2017-Oct-16 01:20N 25°57' W 080°08'0 0.0
2017-Oct-16 00:56N 25°57' W 080°08'0 0.0
2017-Oct-16 00:26N 25°57' W 080°08'0 0.0
2017-Oct-15 23:56N 25°57' W 080°08'0 0.0
2017-Oct-15 23:26N 25°57' W 080°08'0 0.0
2017-Oct-15 22:56N 25°57' W 080°08'0 0.0
2017-Oct-15 22:26N 25°57' W 080°08'0 0.0
2017-Oct-15 21:59N 25°57' W 080°08'0 0.0
2017-Oct-15 21:29N 25°57' W 080°08'0 0.0
2017-Oct-15 20:59N 25°57' W 080°08'0 0.0
2017-Oct-15 20:29N 25°57' W 080°08'0 0.0
2017-Oct-15 19:59N 25°57' W 080°08'2 3.1
2017-Oct-15 19:26N 25°55' W 080°08'5 8.9
2017-Oct-15 18:56N 25°59' W 080°06'713.9
2017-Oct-15 18:26N 26°06' W 080°07'2 3.4
2017-Oct-15 17:54N 26°07' W 080°09'1 3.5
2017-Oct-15 17:30N 26°06' W 080°10'0 0.5
2017-Oct-15 16:51N 26°06' W 080°10'1 2.7
2017-Oct-15 16:28N 26°06' W 080°10'1 2.4
2017-Oct-15 15:58N 26°07' W 080°08'2 3.8
2017-Oct-15 15:27N 26°06' W 080°07'817.1
2017-Oct-15 14:57N 25°57' W 080°06'2 1.8
2017-Oct-15 13:56N 25°57' W 080°08'0 0.0
2017-Oct-15 13:23N 25°57' W 080°08'  
Track history (hours):
 
Tides and Currents Weather Stations Pressure Air Temp Water Temp Dewpoint Dewpoint Depression Visibility Wind Speed Wind Dir Waves Ship Positions

Pura Vida

Last reported at 2017-Oct-20 20:52 UTC. Time now 2017-Oct-22 22:48 UTC.
Position N 25°57' W 080°08'.

Length 24 m.

Type: Pleasure craft. MMSI: 376502000.

Date/timePositionNaut miles runAvg speedWind from/ knotsBaromVisibWave heightAir tempDewpointWater temp
2017-Oct-20 20:52N 25°57' W 080°08'1 3.9
2017-Oct-20 20:29N 25°58' W 080°07'3 5.9
2017-Oct-20 19:59N 26°01' W 080°07'2 3.9
2017-Oct-20 19:21N 26°03' W 080°07'3 7.5
2017-Oct-20 18:59N 26°06' W 080°07'2 5.0
2017-Oct-20 18:29N 26°08' W 080°06'0 0.2
2017-Oct-20 17:46N 26°09' W 080°07'0 1.3
2017-Oct-20 17:29N 26°08' W 080°07'2 3.4
2017-Oct-20 16:57N 26°07' W 080°07'3 6.9
2017-Oct-20 16:27N 26°03' W 080°07'3 6.0
2017-Oct-20 15:57N 26°00' W 080°07'2 4.1
2017-Oct-20 15:30N 25°58' W 080°07'2 3.0
2017-Oct-20 14:56N 25°57' W 080°08'0 0.0
2017-Oct-20 13:56N 25°57' W 080°08'0 0.0
2017-Oct-20 13:26N 25°57' W 080°08'0 0.0
2017-Oct-20 12:59N 25°57' W 080°08'0 0.0
2017-Oct-20 12:29N 25°57' W 080°08'0 0.0
2017-Oct-20 11:59N 25°57' W 080°08'0 0.0
2017-Oct-20 11:29N 25°57' W 080°08'0 0.0
2017-Oct-20 10:59N 25°57' W 080°08'0 0.0
2017-Oct-20 10:26N 25°57' W 080°08'0 0.0
2017-Oct-20 09:59N 25°57' W 080°08'0 0.0
2017-Oct-20 09:29N 25°57' W 080°08'0 0.0
2017-Oct-20 08:59N 25°57' W 080°08'0 0.0
2017-Oct-20 08:29N 25°57' W 080°08'0 0.0
2017-Oct-20 07:59N 25°57' W 080°08'0 0.0
2017-Oct-20 07:20N 25°57' W 080°08'0 0.0
2017-Oct-20 06:59N 25°57' W 080°08'0 0.0
2017-Oct-20 06:29N 25°57' W 080°08'0 0.0
2017-Oct-20 05:50N 25°57' W 080°08'0 0.0
2017-Oct-20 05:23N 25°57' W 080°08'0 0.0
2017-Oct-20 04:53N 25°57' W 080°08'0 0.0
2017-Oct-20 04:23N 25°57' W 080°08'0 0.0
2017-Oct-20 03:53N 25°57' W 080°08'0 0.0
2017-Oct-20 03:23N 25°57' W 080°08'0 0.0
2017-Oct-20 02:53N 25°57' W 080°08'0 0.0
2017-Oct-20 02:26N 25°57' W 080°08'0 0.0
2017-Oct-20 01:56N 25°57' W 080°08'0 0.0
2017-Oct-20 01:26N 25°57' W 080°08'0 0.0
2017-Oct-20 00:56N 25°57' W 080°08'0 0.0
2017-Oct-20 00:26N 25°57' W 080°08'0 0.0
2017-Oct-19 23:59N 25°57' W 080°08'0 0.0
2017-Oct-19 23:29N 25°57' W 080°08'0 0.0
2017-Oct-19 22:59N 25°57' W 080°08'0 0.0
2017-Oct-19 22:29N 25°57' W 080°08'0 0.0
2017-Oct-19 21:59N 25°57' W 080°08'0 0.0
2017-Oct-19 21:29N 25°57' W 080°08'0 0.0
2017-Oct-19 20:59N 25°57' W 080°08'0 0.0
2017-Oct-19 20:29N 25°57' W 080°08'0 0.0
2017-Oct-19 19:59N 25°57' W 080°08'0 0.0
2017-Oct-19 19:29N 25°57' W 080°08'0 0.0
2017-Oct-19 18:59N 25°57' W 080°08'0 0.0
2017-Oct-19 18:29N 25°57' W 080°08'0 0.0
2017-Oct-19 17:59N 25°57' W 080°08'0 0.0
2017-Oct-19 17:29N 25°57' W 080°08'0 0.0
2017-Oct-19 16:50N 25°57' W 080°08'0 0.0
2017-Oct-19 16:20N 25°57' W 080°08'0 0.0
2017-Oct-19 15:50N 25°57' W 080°08'0 0.0
2017-Oct-19 15:20N 25°57' W 080°08'0 0.0
2017-Oct-19 14:50N 25°57' W 080°08'0 0.0
2017-Oct-19 14:23N 25°57' W 080°08'0 0.0
2017-Oct-19 13:53N 25°57' W 080°08'0 0.0
2017-Oct-19 13:23N 25°57' W 080°08'0 0.0
2017-Oct-19 12:53N 25°57' W 080°08'0 0.0
2017-Oct-19 12:23N 25°57' W 080°08'0 0.0
2017-Oct-19 11:56N 25°57' W 080°08'0 0.0
2017-Oct-19 11:26N 25°57' W 080°08'0 0.0
2017-Oct-19 10:56N 25°57' W 080°08'0 0.0
2017-Oct-19 10:26N 25°57' W 080°08'0 0.0
2017-Oct-19 09:59N 25°57' W 080°08'0 0.0
2017-Oct-19 09:29N 25°57' W 080°08'0 0.0
2017-Oct-19 08:59N 25°57' W 080°08'0 0.0
2017-Oct-19 08:29N 25°57' W 080°08'0 0.0
2017-Oct-19 07:59N 25°57' W 080°08'0 0.0
2017-Oct-19 07:29N 25°57' W 080°08'0 0.0
2017-Oct-19 06:59N 25°57' W 080°08'0 0.0
2017-Oct-19 06:29N 25°57' W 080°08'0 0.0
2017-Oct-19 05:59N 25°57' W 080°08'0 0.0
2017-Oct-19 05:29N 25°57' W 080°08'0 0.0
2017-Oct-19 04:59N 25°57' W 080°08'0 0.0
2017-Oct-19 04:29N 25°57' W 080°08'0 0.0
2017-Oct-19 03:59N 25°57' W 080°08'0 0.0
2017-Oct-19 03:29N 25°57' W 080°08'0 0.0
2017-Oct-19 02:59N 25°57' W 080°08'0 0.0
2017-Oct-19 02:20N 25°57' W 080°08'0 0.0
2017-Oct-19 01:53N 25°57' W 080°08'0 0.0
2017-Oct-19 01:20N 25°57' W 080°08'0 0.0
2017-Oct-19 00:53N 25°57' W 080°08'0 0.0
2017-Oct-19 00:23N 25°57' W 080°08'0 0.0
2017-Oct-18 23:53N 25°57' W 080°08'0 0.0
2017-Oct-18 23:23N 25°57' W 080°08'0 0.0
2017-Oct-18 22:56N 25°57' W 080°08'0 0.0
2017-Oct-18 22:26N 25°57' W 080°08'0 0.0
2017-Oct-18 21:56N 25°57' W 080°08'0 0.0
2017-Oct-18 21:26N 25°57' W 080°08'0 0.0
2017-Oct-18 20:56N 25°57' W 080°08'0 0.0
2017-Oct-18 20:26N 25°57' W 080°08'0 0.0
2017-Oct-18 19:59N 25°57' W 080°08'0 0.0
2017-Oct-18 19:29N 25°57' W 080°08'0 0.0
2017-Oct-18 18:59N 25°57' W 080°08'0 0.0
2017-Oct-18 18:29N 25°57' W 080°08'0 0.0
2017-Oct-18 17:56N 25°57' W 080°08'0 0.0
2017-Oct-18 17:29N 25°57' W 080°08'0 0.0
2017-Oct-18 16:59N 25°57' W 080°08'0 0.0
2017-Oct-18 16:29N 25°57' W 080°08'0 0.0
2017-Oct-18 15:59N 25°57' W 080°08'0 0.0
2017-Oct-18 15:29N 25°57' W 080°08'0 0.0
2017-Oct-18 14:59N 25°57' W 080°08'0 0.0
2017-Oct-18 13:59N 25°57' W 080°08'0 0.0
2017-Oct-18 13:20N 25°57' W 080°08'0 0.0
2017-Oct-18 12:59N 25°57' W 080°08'0 0.0
2017-Oct-18 12:20N 25°57' W 080°08'0 0.0
2017-Oct-18 11:50N 25°57' W 080°08'0 0.0
2017-Oct-18 11:23N 25°57' W 080°08'0 0.0
2017-Oct-18 10:53N 25°57' W 080°08'0 0.0
2017-Oct-18 10:23N 25°57' W 080°08'0 0.0
2017-Oct-18 09:53N 25°57' W 080°08'0 0.0
2017-Oct-18 09:23N 25°57' W 080°08'0 0.0
2017-Oct-18 08:53N 25°57' W 080°08'0 0.0
2017-Oct-18 08:26N 25°57' W 080°08'0 0.0
2017-Oct-18 07:56N 25°57' W 080°08'0 0.0
2017-Oct-18 07:26N 25°57' W 080°08'0 0.0
2017-Oct-18 06:56N 25°57' W 080°08'0 0.0
2017-Oct-18 06:26N 25°57' W 080°08'0 0.0
2017-Oct-18 05:56N 25°57' W 080°08'0 0.0
2017-Oct-18 05:29N 25°57' W 080°08'0 0.0
2017-Oct-18 04:59N 25°57' W 080°08'0 0.0
2017-Oct-18 04:29N 25°57' W 080°08'0 0.0
2017-Oct-18 03:59N 25°57' W 080°08'0 0.0
2017-Oct-18 03:29N 25°57' W 080°08'0 0.0
2017-Oct-18 02:59N 25°57' W 080°08'0 0.0
2017-Oct-18 02:29N 25°57' W 080°08'0 0.0
2017-Oct-18 01:56N 25°57' W 080°08'0 0.0
2017-Oct-18 01:29N 25°57' W 080°08'0 0.0
2017-Oct-18 00:59N 25°57' W 080°08'0 0.0
2017-Oct-18 00:29N 25°57' W 080°08'0 0.0
2017-Oct-17 23:59N 25°57' W 080°08'0 0.0
2017-Oct-17 23:29N 25°57' W 080°08'0 0.0
2017-Oct-17 22:59N 25°57' W 080°08'0 0.0
2017-Oct-17 22:20N 25°57' W 080°08'0 0.0
2017-Oct-17 21:50N 25°57' W 080°08'0 0.0
2017-Oct-17 21:23N 25°57' W 080°08'0 0.0
2017-Oct-17 20:53N 25°57' W 080°08'0 0.0
2017-Oct-17 20:23N 25°57' W 080°08'0 0.0
2017-Oct-17 19:53N 25°57' W 080°08'0 0.0
2017-Oct-17 19:26N 25°57' W 080°08'0 0.0
2017-Oct-17 18:53N 25°57' W 080°08'0 0.0
2017-Oct-17 18:26N 25°57' W 080°08'0 0.0
2017-Oct-17 17:56N 25°57' W 080°08'0 0.0
2017-Oct-17 17:26N 25°57' W 080°08'0 0.0
2017-Oct-17 16:56N 25°57' W 080°08'0 0.0
2017-Oct-17 16:29N 25°57' W 080°08'0 0.0
2017-Oct-17 15:56N 25°57' W 080°08'0 0.0
2017-Oct-17 15:29N 25°57' W 080°08'0 0.0
2017-Oct-17 14:59N 25°57' W 080°08'0 0.0
2017-Oct-17 14:29N 25°57' W 080°08'0 0.0
2017-Oct-17 13:59N 25°57' W 080°08'0 0.0
2017-Oct-17 13:26N 25°57' W 080°08'0 0.0
2017-Oct-17 12:59N 25°57' W 080°08'0 0.0
2017-Oct-17 12:29N 25°57' W 080°08'0 0.0
2017-Oct-17 11:59N 25°57' W 080°08'0 0.0
2017-Oct-17 11:29N 25°57' W 080°08'0 0.0
2017-Oct-17 10:59N 25°57' W 080°08'0 0.0
2017-Oct-17 10:29N 25°57' W 080°08'0 0.0
2017-Oct-17 09:59N 25°57' W 080°08'0 0.0
2017-Oct-17 09:29N 25°57' W 080°08'0 0.0
2017-Oct-17 08:50N 25°57' W 080°08'0 0.0
2017-Oct-17 08:20N 25°57' W 080°08'0 0.0
2017-Oct-17 07:50N 25°57' W 080°08'0 0.0
2017-Oct-17 07:23N 25°57' W 080°08'0 0.0
2017-Oct-17 06:53N 25°57' W 080°08'0 0.0
2017-Oct-17 06:20N 25°57' W 080°08'0 0.0
2017-Oct-17 05:53N 25°57' W 080°08'0 0.0
2017-Oct-17 05:23N 25°57' W 080°08'0 0.0
2017-Oct-17 04:56N 25°57' W 080°08'0 0.0
2017-Oct-17 04:23N 25°57' W 080°08'0 0.0
2017-Oct-17 03:56N 25°57' W 080°08'0 0.0
2017-Oct-17 03:11N 25°57' W 080°08'0 0.0
2017-Oct-17 02:56N 25°57' W 080°08'0 0.0
2017-Oct-17 02:26N 25°57' W 080°08'0 0.0
2017-Oct-17 01:59N 25°57' W 080°08'0 0.0
2017-Oct-17 01:29N 25°57' W 080°08'0 0.0
2017-Oct-17 00:59N 25°57' W 080°08'0 0.0
2017-Oct-17 00:26N 25°57' W 080°08'0 0.0
2017-Oct-16 23:59N 25°57' W 080°08'0 0.0
2017-Oct-16 23:29N 25°57' W 080°08'0 0.0
2017-Oct-16 22:59N 25°57' W 080°08'0 0.0
2017-Oct-16 22:29N 25°57' W 080°08'0 0.0
2017-Oct-16 21:59N 25°57' W 080°08'0 0.0
2017-Oct-16 21:17N 25°57' W 080°08'0 0.0
2017-Oct-16 20:59N 25°57' W 080°08'0 0.0
2017-Oct-16 20:29N 25°57' W 080°08'0 0.0
2017-Oct-16 19:59N 25°57' W 080°08'0 0.0
2017-Oct-16 19:29N 25°57' W 080°08'0 0.0
2017-Oct-16 18:47N 25°57' W 080°08'0 0.0
2017-Oct-16 18:20N 25°57' W 080°08'0 0.0
2017-Oct-16 17:50N 25°57' W 080°08'0 0.0
2017-Oct-16 17:20N 25°57' W 080°08'0 0.0
2017-Oct-16 16:53N 25°57' W 080°08'0 0.0
2017-Oct-16 16:23N 25°57' W 080°08'0 0.0
2017-Oct-16 15:56N 25°57' W 080°08'0 0.0
2017-Oct-16 15:20N 25°57' W 080°08'0 0.0
2017-Oct-16 14:56N 25°57' W 080°08'0 0.0
2017-Oct-16 14:26N 25°57' W 080°08'0 0.0
2017-Oct-16 13:26N 25°57' W 080°08'0 0.0
2017-Oct-16 12:56N 25°57' W 080°08'0 0.0
2017-Oct-16 12:26N 25°57' W 080°08'0 0.0
2017-Oct-16 11:59N 25°57' W 080°08'0 0.0
2017-Oct-16 11:26N 25°57' W 080°08'0 0.0
2017-Oct-16 10:59N 25°57' W 080°08'0 0.0
2017-Oct-16 10:26N 25°57' W 080°08'0 0.0
2017-Oct-16 09:59N 25°57' W 080°08'0 0.0
2017-Oct-16 09:29N 25°57' W 080°08'0 0.0
2017-Oct-16 08:59N 25°57' W 080°08'0 0.0
2017-Oct-16 08:29N 25°57' W 080°08'0 0.0
2017-Oct-16 07:59N 25°57' W 080°08'0 0.0
2017-Oct-16 07:29N 25°57' W 080°08'0 0.0
2017-Oct-16 06:59N 25°57' W 080°08'0 0.0
2017-Oct-16 06:29N 25°57' W 080°08'0 0.0
2017-Oct-16 05:59N 25°57' W 080°08'0 0.0
2017-Oct-16 05:29N 25°57' W 080°08'0 0.0
2017-Oct-16 04:50N 25°57' W 080°08'0 0.0
2017-Oct-16 04:20N 25°57' W 080°08'0 0.0
2017-Oct-16 03:53N 25°57' W 080°08'0 0.0
2017-Oct-16 03:23N 25°57' W 080°08'0 0.0
2017-Oct-16 02:53N 25°57' W 080°08'0 0.0
2017-Oct-16 02:23N 25°57' W 080°08'0 0.0
2017-Oct-16 01:53N 25°57' W 080°08'0 0.0
2017-Oct-16 01:20N 25°57' W 080°08'0 0.0
2017-Oct-16 00:56N 25°57' W 080°08'0 0.0
2017-Oct-16 00:26N 25°57' W 080°08'0 0.0
2017-Oct-15 23:56N 25°57' W 080°08'0 0.0
2017-Oct-15 23:26N 25°57' W 080°08'0 0.0
2017-Oct-15 22:56N 25°57' W 080°08'0 0.0
2017-Oct-15 22:26N 25°57' W 080°08'0 0.0
2017-Oct-15 21:59N 25°57' W 080°08'0 0.0
2017-Oct-15 21:29N 25°57' W 080°08'0 0.0
2017-Oct-15 20:59N 25°57' W 080°08'0 0.0
2017-Oct-15 20:29N 25°57' W 080°08'0 0.0
2017-Oct-15 19:59N 25°57' W 080°08'2 3.1
2017-Oct-15 19:26N 25°55' W 080°08'5 8.9
2017-Oct-15 18:56N 25°59' W 080°06'713.9
2017-Oct-15 18:26N 26°06' W 080°07'2 3.4
2017-Oct-15 17:54N 26°07' W 080°09'1 3.5
2017-Oct-15 17:30N 26°06' W 080°10'0 0.5
2017-Oct-15 16:51N 26°06' W 080°10'1 2.7
2017-Oct-15 16:28N 26°06' W 080°10'1 2.4
2017-Oct-15 15:58N 26°07' W 080°08'2 3.8
2017-Oct-15 15:27N 26°06' W 080°07'817.1
2017-Oct-15 14:57N 25°57' W 080°06'2 1.8
2017-Oct-15 13:56N 25°57' W 080°08'0 0.0
2017-Oct-15 13:23N 25°57' W 080°08'  

Dump ship's entire track history